createdAt,value
2022-07-29T00:00:23.164Z,92.72
2022-07-29T00:01:03.289Z,93.00
2022-07-29T00:01:44.147Z,92.09
2022-07-29T00:02:24.325Z,92.79
2022-07-29T00:03:05.389Z,93.52
2022-07-29T00:03:46.349Z,93.20
2022-07-29T00:04:27.362Z,92.98
2022-07-29T00:05:07.342Z,92.05
2022-07-29T00:05:48.192Z,91.65
2022-07-29T00:06:28.219Z,91.14
2022-07-29T00:07:09.167Z,91.45
2022-07-29T00:07:50.243Z,91.75
2022-07-29T00:08:30.147Z,92.20
2022-07-29T00:09:11.309Z,91.73
2022-07-29T00:09:52.658Z,91.43
2022-07-29T00:10:33.319Z,90.55
2022-07-29T00:11:14.203Z,89.89
2022-07-29T00:11:54.266Z,90.37
2022-07-29T00:12:35.262Z,90.01
2022-07-29T00:13:16.270Z,90.16
2022-07-29T00:13:56.178Z,90.60
2022-07-29T00:14:37.219Z,91.01
2022-07-29T00:15:18.211Z,91.53
2022-07-29T00:15:58.333Z,91.31
2022-07-29T00:16:45.304Z,91.95
2022-07-29T00:17:25.216Z,92.08
2022-07-29T00:18:06.170Z,92.43
2022-07-29T00:18:47.283Z,91.88
2022-07-29T00:19:27.173Z,92.48
2022-07-29T00:20:07.331Z,92.44
2022-07-29T00:20:47.226Z,93.22
2022-07-29T00:21:27.229Z,92.58
2022-07-29T00:22:08.230Z,93.27
2022-07-29T00:22:48.438Z,93.00
2022-07-29T00:23:29.911Z,93.02
2022-07-29T00:24:11.228Z,93.33
2022-07-29T00:24:51.176Z,93.42
2022-07-29T00:25:31.216Z,93.17
2022-07-29T00:26:16.277Z,93.18
2022-07-29T00:26:56.204Z,93.13
2022-07-29T00:27:37.282Z,93.49
2022-07-29T00:28:17.281Z,93.65
2022-07-29T00:29:30.717Z,93.00
2022-07-29T00:29:58.244Z,93.12
2022-07-29T00:30:38.176Z,93.60
2022-07-29T00:31:25.530Z,92.32
2022-07-29T00:32:21.149Z,92.03
2022-07-29T00:33:15.135Z,92.30
2022-07-29T00:34:09.164Z,91.84
2022-07-29T00:35:21.327Z,91.68
2022-07-29T00:36:15.178Z,92.01
2022-07-29T00:36:55.175Z,92.16
2022-07-29T00:37:35.254Z,93.53
2022-07-29T00:38:15.173Z,93.15
2022-07-29T00:38:59.296Z,92.79
2022-07-29T00:39:39.118Z,93.06
2022-07-29T00:40:23.338Z,93.23
2022-07-29T00:41:04.291Z,93.72
2022-07-29T00:41:44.240Z,94.61
2022-07-29T00:42:25.199Z,94.02
2022-07-29T00:43:05.301Z,93.47
2022-07-29T00:43:46.222Z,93.44
2022-07-29T00:44:26.682Z,93.21
2022-07-29T00:45:08.123Z,93.40
2022-07-29T00:45:52.236Z,94.00
2022-07-29T00:46:32.182Z,94.39
2022-07-29T00:47:13.478Z,95.33
2022-07-29T00:47:53.218Z,95.18
2022-07-29T00:48:33.243Z,95.17
2022-07-29T00:49:15.194Z,95.47
2022-07-29T00:49:55.246Z,95.41
2022-07-29T00:50:36.225Z,96.43
2022-07-29T00:51:17.394Z,96.28
2022-07-29T00:51:58.167Z,96.40
2022-07-29T00:52:40.207Z,96.69
2022-07-29T00:53:21.143Z,96.86
2022-07-29T00:54:02.227Z,97.13
2022-07-29T00:54:45.030Z,96.25
2022-07-29T00:55:26.247Z,96.72
2022-07-29T00:56:07.337Z,96.54
2022-07-29T00:56:48.205Z,97.04
2022-07-29T00:57:30.218Z,97.48
2022-07-29T00:58:11.278Z,97.46
2022-07-29T00:58:52.148Z,97.43
2022-07-29T00:59:36.393Z,99.24
2022-07-29T01:00:25.122Z,99.63
2022-07-29T01:01:06.300Z,99.71
2022-07-29T01:01:47.227Z,99.35
2022-07-29T01:02:28.124Z,100.00
2022-07-29T01:03:08.124Z,100.00
2022-07-29T01:03:48.317Z,100.00
2022-07-29T01:04:31.136Z,100.00
2022-07-29T01:05:13.938Z,100.00
2022-07-29T01:05:54.137Z,100.00
2022-07-29T01:06:34.463Z,100.00
2022-07-29T01:07:15.141Z,100.00
2022-07-29T01:07:59.297Z,100.00
2022-07-29T01:08:40.108Z,100.00
2022-07-29T01:09:42.086Z,100.00
2022-07-29T01:10:23.154Z,100.00
2022-07-29T01:11:03.202Z,100.00
2022-07-29T01:11:44.090Z,100.00
2022-07-29T01:12:34.752Z,100.00
2022-07-29T01:13:16.086Z,99.85
2022-07-29T01:13:56.395Z,100.00
2022-07-29T01:14:37.126Z,100.00
2022-07-29T01:15:17.260Z,100.00
2022-07-29T01:16:04.196Z,100.00
2022-07-29T01:17:17.177Z,100.00
2022-07-29T01:18:29.096Z,100.00
2022-07-29T01:19:36.156Z,100.00
2022-07-29T01:21:17.276Z,100.00
2022-07-29T01:22:04.200Z,99.54
2022-07-29T01:23:14.083Z,98.71
2022-07-29T01:24:55.154Z,97.69
2022-07-29T01:26:09.066Z,98.18
2022-07-29T01:27:18.180Z,97.84
2022-07-29T01:28:40.130Z,98.94
2022-07-29T01:29:42.079Z,98.90
2022-07-29T01:30:17.205Z,100.00
2022-07-29T01:31:05.088Z,98.67
2022-07-29T01:32:00.670Z,99.46
2022-07-29T01:32:45.066Z,99.41
2022-07-29T01:33:45.063Z,99.19
2022-07-29T01:34:46.037Z,99.86
2022-07-29T01:35:45.130Z,100.00
2022-07-29T01:36:34.045Z,100.00
2022-07-29T01:37:27.132Z,100.00
2022-07-29T01:38:21.095Z,100.00
2022-07-29T01:39:26.092Z,100.00
2022-07-29T01:40:08.055Z,100.00
2022-07-29T01:40:56.115Z,100.00
2022-07-29T01:41:40.068Z,100.00
2022-07-29T01:42:47.102Z,100.00
2022-07-29T01:43:48.094Z,100.00
2022-07-29T01:44:39.074Z,100.00
2022-07-29T01:45:36.073Z,100.00
2022-07-29T01:46:23.189Z,100.00
2022-07-29T01:47:07.027Z,100.00
2022-07-29T01:48:04.167Z,100.00
2022-07-29T01:48:58.135Z,100.00
2022-07-29T01:49:44.104Z,100.00
2022-07-29T01:50:26.025Z,100.00
2022-07-29T01:51:19.178Z,100.00
2022-07-29T01:52:14.989Z,100.00
2022-07-29T01:53:12.232Z,100.00
2022-07-29T01:54:51.078Z,100.00
2022-07-29T01:55:36.103Z,100.00
2022-07-29T01:56:18.016Z,100.00
2022-07-29T01:57:01.091Z,100.00
2022-07-29T01:57:44.056Z,100.00
2022-07-29T01:58:26.086Z,100.00
2022-07-29T01:59:07.022Z,100.00
2022-07-29T01:59:48.080Z,100.00
2022-07-29T02:00:30.029Z,100.00
2022-07-29T02:01:13.024Z,100.00
2022-07-29T02:01:55.074Z,100.00
2022-07-29T02:02:36.099Z,100.00
2022-07-29T02:03:19.037Z,100.00
2022-07-29T02:04:01.116Z,100.00
2022-07-29T02:04:44.069Z,100.00
2022-07-29T02:05:27.213Z,100.00
2022-07-29T02:06:10.041Z,100.00
2022-07-29T02:06:51.148Z,100.00
2022-07-29T02:07:33.022Z,100.00
2022-07-29T02:08:14.146Z,100.00
2022-07-29T02:08:56.998Z,100.00
2022-07-29T02:09:39.081Z,100.00
2022-07-29T02:10:20.056Z,100.00
2022-07-29T02:11:08.101Z,100.00
2022-07-29T02:11:58.053Z,100.00
2022-07-29T02:12:40.207Z,100.00
2022-07-29T02:13:22.073Z,100.00
2022-07-29T02:14:04.089Z,100.00
2022-07-29T02:14:57.999Z,100.00
2022-07-29T02:15:40.127Z,100.00
2022-07-29T02:16:21.041Z,100.00
2022-07-29T02:17:11.023Z,100.00
2022-07-29T02:18:41.041Z,100.00
2022-07-29T02:19:38.040Z,100.00
2022-07-29T02:20:32.041Z,100.00
2022-07-29T02:21:27.002Z,100.00
2022-07-29T02:22:21.040Z,100.00
2022-07-29T02:23:15.990Z,100.00
2022-07-29T02:24:13.405Z,100.00
2022-07-29T02:25:13.884Z,100.00
2022-07-29T02:26:10.991Z,100.00
2022-07-29T02:27:07.990Z,100.00
2022-07-29T02:27:50.116Z,100.00
2022-07-29T02:28:34.136Z,100.00
2022-07-29T02:29:14.997Z,100.00
2022-07-29T02:29:57.079Z,100.00
2022-07-29T02:30:39.010Z,100.00
2022-07-29T02:31:21.092Z,100.00
2022-07-29T02:32:03.021Z,100.00
2022-07-29T02:32:45.087Z,100.00
2022-07-29T02:33:29.108Z,100.00
2022-07-29T02:34:16.598Z,100.00
2022-07-29T02:35:01.004Z,100.00
2022-07-29T02:35:41.066Z,100.00
2022-07-29T02:36:21.989Z,100.00
2022-07-29T02:37:03.071Z,100.00
2022-07-29T02:37:45.028Z,100.00
2022-07-29T02:38:52.075Z,100.00
2022-07-29T02:39:47.017Z,100.00
2022-07-29T02:40:40.977Z,100.00
2022-07-29T02:41:43.082Z,100.00
2022-07-29T02:42:37.989Z,100.00
2022-07-29T02:43:31.977Z,100.00
2022-07-29T02:44:20.371Z,100.00
2022-07-29T02:45:01.111Z,100.00
2022-07-29T02:45:44.973Z,100.00
2022-07-29T02:46:32.380Z,100.00
2022-07-29T02:47:26.982Z,100.00
2022-07-29T02:48:08.106Z,100.00
2022-07-29T02:49:12.122Z,100.00
2022-07-29T02:50:25.027Z,100.00
2022-07-29T02:51:10.043Z,100.00
2022-07-29T02:52:42.970Z,100.00
2022-07-29T02:53:33.121Z,100.00
2022-07-29T02:54:45.014Z,100.00
2022-07-29T02:55:50.965Z,100.00
2022-07-29T02:56:47.056Z,100.00
2022-07-29T02:57:55.456Z,100.00
2022-07-29T02:59:02.046Z,100.00
2022-07-29T02:59:56.968Z,100.00
2022-07-29T03:00:53.016Z,100.00
2022-07-29T03:01:48.091Z,100.00
2022-07-29T03:02:43.985Z,100.00
2022-07-29T03:03:40.992Z,100.00
2022-07-29T03:04:37.154Z,100.00
2022-07-29T03:05:34.003Z,100.00
2022-07-29T03:06:37.623Z,100.00
2022-07-29T03:07:17.138Z,100.00
2022-07-29T03:08:09.016Z,100.00
2022-07-29T03:08:49.010Z,100.00
2022-07-29T03:09:30.935Z,100.00
2022-07-29T03:10:13.673Z,100.00
2022-07-29T03:10:54.989Z,100.00
2022-07-29T03:11:42.197Z,100.00
2022-07-29T03:12:24.036Z,100.00
2022-07-29T03:13:11.947Z,100.00
2022-07-29T03:13:47.068Z,100.00
2022-07-29T03:14:33.941Z,100.00
2022-07-29T03:15:09.298Z,100.00
2022-07-29T03:15:57.007Z,100.00
2022-07-29T03:16:31.079Z,100.00
2022-07-29T03:17:11.967Z,100.00
2022-07-29T03:18:06.984Z,100.00
2022-07-29T03:19:01.959Z,100.00
2022-07-29T03:19:59.866Z,100.00
2022-07-29T03:20:54.022Z,100.00
2022-07-29T03:21:48.984Z,100.00
2022-07-29T03:22:36.046Z,100.00
2022-07-29T03:23:10.010Z,100.00
2022-07-29T03:23:56.945Z,100.00
2022-07-29T03:24:38.125Z,100.00
2022-07-29T03:25:27.007Z,100.00
2022-07-29T03:26:02.034Z,100.00
2022-07-29T03:26:48.930Z,100.00
2022-07-29T03:27:22.989Z,100.00
2022-07-29T03:28:04.048Z,100.00
2022-07-29T03:28:45.051Z,100.00
2022-07-29T03:29:25.970Z,100.00
2022-07-29T03:30:18.314Z,100.00
2022-07-29T03:31:02.001Z,100.00
2022-07-29T03:31:43.652Z,100.00
2022-07-29T03:32:25.330Z,100.00
2022-07-29T03:33:13.699Z,100.00
2022-07-29T03:34:07.936Z,100.00
2022-07-29T03:35:02.031Z,100.00
2022-07-29T03:35:55.916Z,100.00
2022-07-29T03:36:50.002Z,100.00
2022-07-29T03:37:44.030Z,100.00
2022-07-29T03:38:33.961Z,100.00
2022-07-29T03:39:09.120Z,100.00
2022-07-29T03:39:57.914Z,100.00
2022-07-29T03:40:46.215Z,100.00
2022-07-29T03:41:32.946Z,100.00
2022-07-29T03:42:08.863Z,100.00
2022-07-29T03:42:57.909Z,100.00
2022-07-29T03:43:33.558Z,100.00
2022-07-29T03:44:16.333Z,100.00
2022-07-29T03:44:58.076Z,100.00
2022-07-29T03:45:38.931Z,100.00
2022-07-29T03:46:19.169Z,100.00
2022-07-29T03:46:59.900Z,100.00
2022-07-29T03:47:50.242Z,100.00
2022-07-29T03:48:33.143Z,100.00
2022-07-29T03:49:14.074Z,100.00
2022-07-29T03:49:57.951Z,100.00
2022-07-29T03:50:39.037Z,100.00
2022-07-29T03:51:19.940Z,100.00
2022-07-29T03:52:13.994Z,100.00
2022-07-29T03:52:55.018Z,100.00
2022-07-29T03:53:36.462Z,100.00
2022-07-29T03:54:18.194Z,100.00
2022-07-29T03:55:05.966Z,100.00
2022-07-29T03:56:06.958Z,100.00
2022-07-29T03:57:03.968Z,100.00
2022-07-29T03:57:59.951Z,100.00
2022-07-29T03:58:53.907Z,100.00
2022-07-29T03:59:48.992Z,100.00
2022-07-29T04:00:31.936Z,100.00
2022-07-29T04:01:15.066Z,100.00
2022-07-29T04:01:55.988Z,100.00
2022-07-29T04:02:35.988Z,100.00
2022-07-29T04:03:16.985Z,100.00
2022-07-29T04:03:57.115Z,100.00
2022-07-29T04:04:42.197Z,100.00
2022-07-29T04:05:25.998Z,100.00
2022-07-29T04:06:12.931Z,100.00
2022-07-29T04:06:54.069Z,100.00
2022-07-29T04:07:34.939Z,100.00
2022-07-29T04:08:14.991Z,100.00
2022-07-29T04:08:55.918Z,100.00
2022-07-29T04:09:36.045Z,100.00
2022-07-29T04:10:16.925Z,100.00
2022-07-29T04:10:57.043Z,100.00
2022-07-29T04:12:03.420Z,100.00
2022-07-29T04:12:39.005Z,100.00
2022-07-29T04:13:18.934Z,100.00
2022-07-29T04:13:58.992Z,100.00
2022-07-29T04:14:40.910Z,100.00
2022-07-29T04:15:21.042Z,100.00
2022-07-29T04:16:01.968Z,100.00
2022-07-29T04:16:49.016Z,100.00
2022-07-29T04:17:42.947Z,100.00
2022-07-29T04:18:37.946Z,100.00
2022-07-29T04:19:31.883Z,100.00
2022-07-29T04:20:25.918Z,100.00
2022-07-29T04:21:19.906Z,100.00
2022-07-29T04:22:08.914Z,100.00
2022-07-29T04:22:43.001Z,100.00
2022-07-29T04:23:29.941Z,100.00
2022-07-29T04:24:04.000Z,100.00
2022-07-29T04:24:50.923Z,100.00
2022-07-29T04:25:25.038Z,100.00
2022-07-29T04:26:11.918Z,100.00
2022-07-29T04:26:46.057Z,100.00
2022-07-29T04:27:33.899Z,100.00
2022-07-29T04:28:08.002Z,100.00
2022-07-29T04:28:54.875Z,100.00
2022-07-29T04:29:29.018Z,100.00
2022-07-29T04:30:16.928Z,100.00
2022-07-29T04:30:51.084Z,100.00
2022-07-29T04:31:37.932Z,100.00
2022-07-29T04:32:13.074Z,100.00
2022-07-29T04:32:52.968Z,100.00
2022-07-29T04:33:33.013Z,100.00
2022-07-29T04:34:14.384Z,100.00
2022-07-29T04:34:54.953Z,100.00
2022-07-29T04:35:50.459Z,100.00
2022-07-29T04:36:34.941Z,100.00
2022-07-29T04:37:14.889Z,100.00
2022-07-29T04:38:01.911Z,100.00
2022-07-29T04:38:55.862Z,100.00
2022-07-29T04:39:49.909Z,100.00
2022-07-29T04:40:43.941Z,100.00
2022-07-29T04:41:37.873Z,100.00
2022-07-29T04:42:31.905Z,100.00
2022-07-29T04:43:26.330Z,100.00
2022-07-29T04:44:05.831Z,100.00
2022-07-29T04:44:53.864Z,100.00
2022-07-29T04:45:27.951Z,100.00
2022-07-29T04:46:14.957Z,100.00
2022-07-29T04:46:49.033Z,100.00
2022-07-29T04:47:35.910Z,100.00
2022-07-29T04:48:09.929Z,100.00
2022-07-29T04:48:50.967Z,100.00
2022-07-29T04:49:31.039Z,100.00
2022-07-29T04:50:13.911Z,100.00
2022-07-29T04:50:53.949Z,100.00
2022-07-29T04:51:34.866Z,100.00
2022-07-29T04:52:15.000Z,100.00
2022-07-29T04:52:54.850Z,100.00
2022-07-29T04:53:48.866Z,100.00
2022-07-29T04:54:29.869Z,100.00
2022-07-29T04:55:11.999Z,100.00
2022-07-29T04:55:52.869Z,100.00
2022-07-29T04:56:34.085Z,100.00
2022-07-29T04:57:14.855Z,100.00
2022-07-29T04:57:54.961Z,100.00
2022-07-29T04:58:34.888Z,100.00
2022-07-29T04:59:14.907Z,100.00
2022-07-29T04:59:49.621Z,100.00
2022-07-29T05:00:36.864Z,100.00
2022-07-29T05:01:11.043Z,100.00
2022-07-29T05:01:57.937Z,100.00
2022-07-29T05:02:32.443Z,100.00
2022-07-29T05:03:19.974Z,100.00
2022-07-29T05:04:00.150Z,100.00
2022-07-29T05:04:42.866Z,100.00
2022-07-29T05:05:24.455Z,100.00
2022-07-29T05:06:05.038Z,100.00
2022-07-29T05:06:46.330Z,100.00
2022-07-29T05:07:26.868Z,100.00
2022-07-29T05:08:07.035Z,100.00
2022-07-29T05:08:46.886Z,100.00
2022-07-29T05:09:26.938Z,100.00
2022-07-29T05:10:12.888Z,100.00
2022-07-29T05:10:53.942Z,100.00
2022-07-29T05:11:33.843Z,100.00
2022-07-29T05:12:15.914Z,100.00
2022-07-29T05:12:56.917Z,100.00
2022-07-29T05:13:47.209Z,100.00
2022-07-29T05:14:30.022Z,100.00
2022-07-29T05:15:12.029Z,100.00
2022-07-29T05:15:57.880Z,100.00
2022-07-29T05:16:41.339Z,100.00
2022-07-29T05:17:22.862Z,100.00
2022-07-29T05:18:05.989Z,100.00
2022-07-29T05:18:46.863Z,100.00
2022-07-29T05:19:28.195Z,100.00
2022-07-29T05:20:08.896Z,100.00
2022-07-29T05:20:48.959Z,100.00
2022-07-29T05:21:29.893Z,100.00
2022-07-29T05:22:11.055Z,100.00
2022-07-29T05:22:50.889Z,100.00
2022-07-29T05:23:30.949Z,100.00
2022-07-29T05:24:11.906Z,100.00
2022-07-29T05:24:51.966Z,100.00
2022-07-29T05:25:44.366Z,100.00
2022-07-29T05:26:25.905Z,100.00
2022-07-29T05:27:06.050Z,100.00
2022-07-29T05:27:48.950Z,100.00
2022-07-29T05:28:34.222Z,100.00
2022-07-29T05:29:44.819Z,100.00
2022-07-29T05:30:15.858Z,99.50
2022-07-29T05:30:56.012Z,98.95
2022-07-29T05:31:36.890Z,98.88
2022-07-29T05:32:23.868Z,99.75
2022-07-29T05:33:35.221Z,99.20
2022-07-29T05:34:30.939Z,98.96
2022-07-29T05:35:24.873Z,99.30
2022-07-29T05:36:20.890Z,98.92
2022-07-29T05:37:16.868Z,98.61
2022-07-29T05:37:57.978Z,98.53
2022-07-29T05:38:39.292Z,98.31
2022-07-29T05:39:20.903Z,97.90
2022-07-29T05:40:01.015Z,97.38
2022-07-29T05:40:42.926Z,97.35
2022-07-29T05:41:24.059Z,96.79
2022-07-29T05:42:04.981Z,96.63
2022-07-29T05:42:44.892Z,96.45
2022-07-29T05:43:27.028Z,95.99
2022-07-29T05:44:08.235Z,96.16
2022-07-29T05:44:47.859Z,96.55
2022-07-29T05:45:28.436Z,96.50
2022-07-29T05:46:08.953Z,96.72
2022-07-29T05:46:49.984Z,96.15
2022-07-29T05:47:30.914Z,96.30
2022-07-29T05:48:10.974Z,95.95
2022-07-29T05:48:51.982Z,96.22
2022-07-29T05:49:32.247Z,95.78
2022-07-29T05:50:12.823Z,95.38
2022-07-29T05:51:06.861Z,95.43
2022-07-29T05:52:00.951Z,95.36
2022-07-29T05:52:54.869Z,94.89
2022-07-29T05:53:48.828Z,95.04
2022-07-29T05:54:28.904Z,94.42
2022-07-29T05:55:08.996Z,93.92
2022-07-29T05:55:49.828Z,94.29
2022-07-29T05:56:30.010Z,94.10
2022-07-29T05:57:10.898Z,93.34
2022-07-29T05:57:50.909Z,92.91
2022-07-29T05:58:31.858Z,93.46
2022-07-29T05:59:15.540Z,93.07
2022-07-29T05:59:59.879Z,93.19
2022-07-29T06:00:39.918Z,92.68
2022-07-29T06:01:19.946Z,92.82
2022-07-29T06:02:00.044Z,92.53
2022-07-29T06:02:40.918Z,92.30
2022-07-29T06:03:20.912Z,92.21
2022-07-29T06:04:00.905Z,91.55
2022-07-29T06:04:40.946Z,91.92
2022-07-29T06:05:24.087Z,92.08
2022-07-29T06:06:05.242Z,91.52
2022-07-29T06:06:44.918Z,91.86
2022-07-29T06:07:25.119Z,91.25
2022-07-29T06:08:05.876Z,91.06
2022-07-29T06:08:45.945Z,90.46
2022-07-29T06:09:26.834Z,90.07
2022-07-29T06:10:06.958Z,90.35
2022-07-29T06:10:46.910Z,90.13
2022-07-29T06:11:27.033Z,89.68
2022-07-29T06:12:07.801Z,90.01
2022-07-29T06:12:47.920Z,88.39
2022-07-29T06:13:28.940Z,88.49
2022-07-29T06:14:08.917Z,88.23
2022-07-29T06:14:53.891Z,88.07
2022-07-29T06:15:35.030Z,87.71
2022-07-29T06:16:15.433Z,88.25
2022-07-29T06:17:09.944Z,88.13
2022-07-29T06:17:59.003Z,87.54
2022-07-29T06:18:44.853Z,87.32
2022-07-29T06:19:24.783Z,87.19
2022-07-29T06:20:07.939Z,86.58
2022-07-29T06:20:48.848Z,86.01
2022-07-29T06:21:28.960Z,85.61
2022-07-29T06:22:02.937Z,85.82
2022-07-29T06:22:49.802Z,85.65
2022-07-29T06:23:26.930Z,85.43
2022-07-29T06:24:15.151Z,85.29
2022-07-29T06:24:48.925Z,85.10
2022-07-29T06:25:36.814Z,84.25
2022-07-29T06:26:10.954Z,84.09
2022-07-29T06:26:51.883Z,83.58
2022-07-29T06:27:31.933Z,83.23
2022-07-29T06:28:13.868Z,82.75
2022-07-29T06:28:54.112Z,82.61
2022-07-29T06:29:34.802Z,82.88
2022-07-29T06:30:15.914Z,82.99
2022-07-29T06:30:55.823Z,82.90
2022-07-29T06:31:35.877Z,81.87
2022-07-29T06:32:16.807Z,82.40
2022-07-29T06:32:57.936Z,82.74
2022-07-29T06:33:37.851Z,82.19
2022-07-29T06:34:18.151Z,82.22
2022-07-29T06:35:32.017Z,82.10
2022-07-29T06:36:00.753Z,81.92
2022-07-29T06:36:45.097Z,81.80
2022-07-29T06:37:32.825Z,81.49
2022-07-29T06:38:31.816Z,81.59
2022-07-29T06:39:29.899Z,81.40
2022-07-29T06:40:44.858Z,81.51
2022-07-29T06:41:41.865Z,80.38
2022-07-29T06:42:39.604Z,80.74
2022-07-29T06:43:33.782Z,80.60
2022-07-29T06:44:27.845Z,80.39
2022-07-29T06:45:21.898Z,80.25
2022-07-29T06:46:23.123Z,80.06
2022-07-29T06:47:17.911Z,80.14
2022-07-29T06:47:58.979Z,79.61
2022-07-29T06:48:39.969Z,79.11
2022-07-29T06:49:21.945Z,78.65
2022-07-29T06:50:02.535Z,78.71
2022-07-29T06:50:48.830Z,78.35
2022-07-29T06:51:30.901Z,78.52
2022-07-29T06:52:11.860Z,78.29
2022-07-29T06:52:52.003Z,78.40
2022-07-29T06:53:34.879Z,77.78
2022-07-29T06:54:15.185Z,78.12
2022-07-29T06:54:55.851Z,78.35
2022-07-29T06:55:39.646Z,77.92
2022-07-29T06:56:21.794Z,77.72
2022-07-29T06:57:02.936Z,78.28
2022-07-29T06:57:43.833Z,77.49
2022-07-29T06:58:24.017Z,78.69
2022-07-29T06:59:04.842Z,77.57
2022-07-29T06:59:44.865Z,77.71
2022-07-29T07:00:25.866Z,77.86
2022-07-29T07:01:09.061Z,77.23
2022-07-29T07:01:52.212Z,77.49
2022-07-29T07:02:42.018Z,77.37
2022-07-29T07:03:23.806Z,77.01
2022-07-29T07:04:03.908Z,76.60
2022-07-29T07:04:44.918Z,77.08
2022-07-29T07:05:25.020Z,76.63
2022-07-29T07:06:05.787Z,76.33
2022-07-29T07:06:46.919Z,77.10
2022-07-29T07:07:31.808Z,76.33
2022-07-29T07:08:13.091Z,75.90
2022-07-29T07:08:56.152Z,76.38
2022-07-29T07:09:39.979Z,75.67
2022-07-29T07:10:28.107Z,75.11
2022-07-29T07:11:17.899Z,75.23
2022-07-29T07:12:22.049Z,74.98
2022-07-29T07:13:02.876Z,75.17
2022-07-29T07:13:43.872Z,75.10
2022-07-29T07:14:24.922Z,74.90
2022-07-29T07:15:05.846Z,75.01
2022-07-29T07:15:47.916Z,75.22
2022-07-29T07:16:22.114Z,75.42
2022-07-29T07:17:11.871Z,75.20
2022-07-29T07:17:48.323Z,74.87
2022-07-29T07:18:36.118Z,75.07
2022-07-29T07:19:09.969Z,75.10
2022-07-29T07:19:59.003Z,74.73
2022-07-29T07:20:34.144Z,74.85
2022-07-29T07:21:18.742Z,75.17
2022-07-29T07:22:01.872Z,74.97
2022-07-29T07:22:44.858Z,75.10
2022-07-29T07:23:24.931Z,74.99
2022-07-29T07:24:06.890Z,74.84
2022-07-29T07:24:52.211Z,73.64
2022-07-29T07:26:29.864Z,73.85
2022-07-29T07:27:04.974Z,73.67
2022-07-29T07:28:41.986Z,74.23
2022-07-29T07:29:29.078Z,73.94
2022-07-29T07:30:06.699Z,74.33
2022-07-29T07:30:53.944Z,74.46
2022-07-29T07:31:28.052Z,74.10
2022-07-29T07:32:07.926Z,74.49
2022-07-29T07:32:48.069Z,74.27
2022-07-29T07:33:30.003Z,74.34
2022-07-29T07:34:14.087Z,74.39
2022-07-29T07:34:59.324Z,73.91
2022-07-29T07:35:46.276Z,73.53
2022-07-29T07:36:28.908Z,74.03
2022-07-29T07:37:15.914Z,73.64
2022-07-29T07:38:11.221Z,73.37
2022-07-29T07:39:27.628Z,73.17
2022-07-29T07:40:21.767Z,73.15
2022-07-29T07:41:15.691Z,73.17
2022-07-29T07:42:39.148Z,73.15
2022-07-29T07:43:24.986Z,73.20
2022-07-29T07:44:16.008Z,72.72
2022-07-29T07:45:12.118Z,73.10
2022-07-29T07:45:58.944Z,72.20
2022-07-29T07:46:34.030Z,72.24
2022-07-29T07:47:27.947Z,72.02
2022-07-29T07:48:08.988Z,72.07
2022-07-29T07:49:03.841Z,71.76
2022-07-29T07:49:57.784Z,71.43
2022-07-29T07:50:53.812Z,71.30
2022-07-29T07:51:50.948Z,71.14
2022-07-29T07:52:44.871Z,70.92
2022-07-29T07:53:31.795Z,70.59
2022-07-29T07:54:08.146Z,70.11
2022-07-29T07:54:55.829Z,70.04
2022-07-29T07:55:47.467Z,69.76
2022-07-29T07:56:38.103Z,69.89
2022-07-29T07:57:12.958Z,69.89
2022-07-29T07:58:01.154Z,69.63
2022-07-29T07:58:42.900Z,69.69
2022-07-29T07:59:36.968Z,69.65
2022-07-29T08:00:31.716Z,68.84
2022-07-29T08:01:49.960Z,68.20
2022-07-29T08:02:42.810Z,68.22
2022-07-29T08:03:17.417Z,68.78
2022-07-29T08:04:04.835Z,68.15
2022-07-29T08:04:41.329Z,68.32
2022-07-29T08:05:28.894Z,68.19
2022-07-29T08:06:04.039Z,68.59
2022-07-29T08:06:50.826Z,67.82
2022-07-29T08:07:24.526Z,67.37
2022-07-29T08:08:16.082Z,66.85
2022-07-29T08:08:51.909Z,65.58
2022-07-29T08:09:34.809Z,65.38
2022-07-29T08:10:09.457Z,64.38
2022-07-29T08:10:53.981Z,63.74
2022-07-29T08:11:34.838Z,63.25
2022-07-29T08:12:19.979Z,63.18
2022-07-29T08:13:00.833Z,62.46
2022-07-29T08:13:44.903Z,62.05
2022-07-29T08:14:24.965Z,62.49
2022-07-29T08:15:06.981Z,63.02
2022-07-29T08:15:46.091Z,62.47
2022-07-29T08:16:20.830Z,62.21
2022-07-29T08:17:02.033Z,62.62
2022-07-29T08:17:37.014Z,62.61
2022-07-29T08:18:11.604Z,63.35
2022-07-29T08:18:53.803Z,61.89
2022-07-29T08:19:29.869Z,62.18
2022-07-29T08:20:04.660Z,61.87
2022-07-29T08:20:48.113Z,62.26
2022-07-29T08:21:22.888Z,63.42
2022-07-29T08:21:56.613Z,62.01
2022-07-29T08:22:38.018Z,62.18
2022-07-29T08:23:13.889Z,62.43
2022-07-29T08:24:02.883Z,62.72
2022-07-29T08:24:51.777Z,62.47
2022-07-29T08:25:26.116Z,61.89
2022-07-29T08:26:06.778Z,61.87
2022-07-29T08:26:48.851Z,61.63
2022-07-29T08:27:44.992Z,61.86
2022-07-29T08:28:25.948Z,61.63
2022-07-29T08:29:06.728Z,61.59
2022-07-29T08:29:47.916Z,61.41
2022-07-29T08:30:28.731Z,61.76
2022-07-29T08:31:15.870Z,61.88
2022-07-29T08:31:49.746Z,62.22
2022-07-29T08:32:55.620Z,61.78
2022-07-29T08:33:30.537Z,62.52
2022-07-29T08:34:18.725Z,61.83
2022-07-29T08:34:59.648Z,61.26
2022-07-29T08:35:48.898Z,61.13
2022-07-29T08:36:28.893Z,60.86
2022-07-29T08:37:09.817Z,60.40
2022-07-29T08:39:17.439Z,60.83
2022-07-29T08:40:17.824Z,60.40
2022-07-29T08:40:59.917Z,59.66
2022-07-29T08:41:39.821Z,59.63
2022-07-29T08:42:19.906Z,59.26
2022-07-29T08:42:59.901Z,58.85
2022-07-29T08:43:42.797Z,59.48
2022-07-29T08:44:30.866Z,59.65
2022-07-29T08:45:13.819Z,59.35
2022-07-29T08:45:57.864Z,59.20
2022-07-29T08:46:38.948Z,58.74
2022-07-29T08:47:22.904Z,58.99
2022-07-29T08:48:03.839Z,58.86
2022-07-29T08:48:44.902Z,58.58
2022-07-29T08:49:25.888Z,58.25
2022-07-29T08:50:06.187Z,58.13
2022-07-29T08:50:49.103Z,58.04
2022-07-29T08:51:49.363Z,57.85
2022-07-29T08:53:26.232Z,58.65
2022-07-29T08:54:22.744Z,58.46
2022-07-29T08:55:22.873Z,58.04
2022-07-29T08:56:20.776Z,58.09
2022-07-29T08:57:19.114Z,58.63
2022-07-29T08:58:15.968Z,58.46
2022-07-29T08:58:57.703Z,58.79
2022-07-29T08:59:39.216Z,58.80
2022-07-29T09:00:21.703Z,58.83
2022-07-29T09:01:03.881Z,58.72
2022-07-29T09:01:50.831Z,58.58
2022-07-29T09:02:31.794Z,58.16
2022-07-29T09:03:12.723Z,57.58
2022-07-29T09:03:53.806Z,57.52
2022-07-29T09:04:41.910Z,57.75
2022-07-29T09:05:24.337Z,57.79
2022-07-29T09:06:06.683Z,57.70
2022-07-29T09:06:52.833Z,58.03
2022-07-29T09:07:34.694Z,57.80
2022-07-29T09:08:14.724Z,58.04
2022-07-29T09:08:55.671Z,57.92
2022-07-29T09:09:36.886Z,57.49
2022-07-29T09:10:17.805Z,57.80
2022-07-29T09:10:58.062Z,57.58
2022-07-29T09:11:39.725Z,57.50
2022-07-29T09:12:27.806Z,57.51
2022-07-29T09:13:10.667Z,57.45
2022-07-29T09:13:51.169Z,57.41
2022-07-29T09:14:32.738Z,57.04
2022-07-29T09:15:13.817Z,56.98
2022-07-29T09:15:54.869Z,57.90
2022-07-29T09:17:01.616Z,57.10
2022-07-29T09:17:56.697Z,57.16
2022-07-29T09:18:48.775Z,56.54
2022-07-29T09:19:37.726Z,56.95
2022-07-29T09:20:23.384Z,56.99
2022-07-29T09:21:22.686Z,56.30
2022-07-29T09:22:05.271Z,56.68
2022-07-29T09:22:46.701Z,56.73
2022-07-29T09:23:26.751Z,57.41
2022-07-29T09:24:20.679Z,57.23
2022-07-29T09:25:00.728Z,57.17
2022-07-29T09:25:46.697Z,56.83
2022-07-29T09:26:33.766Z,57.35
2022-07-29T09:27:40.651Z,56.98
2022-07-29T09:28:34.758Z,57.10
2022-07-29T09:29:38.690Z,56.69
2022-07-29T09:30:32.684Z,56.72
2022-07-29T09:31:30.793Z,56.30
2022-07-29T09:32:16.717Z,55.99
2022-07-29T09:33:08.937Z,55.27
2022-07-29T09:33:49.697Z,55.62
2022-07-29T09:34:36.823Z,55.33
2022-07-29T09:35:23.682Z,55.75
2022-07-29T09:36:14.861Z,55.04
2022-07-29T09:36:58.408Z,55.70
2022-07-29T09:37:38.763Z,55.59
2022-07-29T09:38:21.772Z,55.44
2022-07-29T09:39:10.724Z,55.54
2022-07-29T09:39:47.759Z,55.93
2022-07-29T09:40:35.704Z,55.27
2022-07-29T09:41:16.070Z,55.56
2022-07-29T09:42:05.731Z,56.29
2022-07-29T09:42:46.712Z,56.31
2022-07-29T09:43:41.653Z,55.99